createdAt,value
2018-07-10T00:03:24.123Z,11.90
2018-07-10T00:08:09.542Z,11.50
2018-07-10T00:10:45.831Z,11.50
2018-07-10T00:13:14.980Z,11.70
2018-07-10T00:15:44.151Z,11.70
2018-07-10T00:18:13.327Z,11.60
2018-07-10T00:20:42.647Z,11.50
2018-07-10T00:23:11.691Z,11.50
2018-07-10T00:25:40.948Z,11.60
2018-07-10T00:28:10.142Z,11.60
2018-07-10T00:30:39.364Z,11.50
2018-07-10T00:33:08.503Z,11.60
2018-07-10T00:35:37.768Z,11.50
2018-07-10T00:38:17.747Z,11.40
2018-07-10T00:40:46.727Z,11.40
2018-07-10T00:43:16.088Z,11.40
2018-07-10T00:45:45.122Z,11.40
2018-07-10T00:48:14.339Z,11.30
2018-07-10T00:50:44.354Z,11.30
2018-07-10T00:53:13.452Z,11.30
2018-07-10T00:55:42.806Z,11.30
2018-07-10T00:58:11.964Z,11.30
2018-07-10T01:00:40.957Z,11.40
2018-07-10T01:03:10.163Z,11.30
2018-07-10T01:05:39.343Z,11.30
2018-07-10T01:08:08.500Z,11.30
2018-07-10T01:10:37.813Z,11.40
2018-07-10T01:13:07.013Z,11.40
2018-07-10T01:15:36.354Z,11.40
2018-07-10T01:18:05.653Z,11.40
2018-07-10T01:20:34.805Z,11.30
2018-07-10T01:23:04.051Z,11.40
2018-07-10T01:25:33.224Z,11.30
2018-07-10T01:28:02.455Z,11.30
2018-07-10T01:30:31.651Z,11.10
2018-07-10T01:33:00.664Z,11.10
2018-07-10T01:35:29.776Z,11.20
2018-07-10T01:37:58.951Z,10.90
2018-07-10T01:40:28.148Z,10.80
2018-07-10T01:42:57.257Z,10.90
2018-07-10T01:45:26.367Z,11.00
2018-07-10T01:47:55.654Z,11.00
2018-07-10T01:50:24.951Z,10.90
2018-07-10T01:52:54.177Z,10.80
2018-07-10T01:55:23.378Z,11.00
2018-07-10T01:57:54.339Z,11.00
2018-07-10T02:00:34.288Z,11.10
2018-07-10T02:03:03.472Z,11.00
2018-07-10T02:05:32.983Z,11.00
2018-07-10T02:08:02.776Z,11.10
2018-07-10T02:10:31.993Z,11.00
2018-07-10T02:13:01.188Z,10.80
2018-07-10T02:15:30.437Z,10.80
2018-07-10T02:17:59.807Z,10.90
2018-07-10T02:20:32.192Z,10.90
2018-07-10T02:23:03.251Z,10.90
2018-07-10T02:25:32.334Z,10.90
2018-07-10T02:28:01.666Z,11.00
2018-07-10T02:30:30.892Z,10.90
2018-07-10T02:33:00.109Z,10.80
2018-07-10T02:35:29.275Z,10.80
2018-07-10T02:37:58.437Z,10.90
2018-07-10T02:40:27.618Z,10.90
2018-07-10T02:42:56.627Z,10.90
2018-07-10T02:45:25.880Z,11.10
2018-07-10T02:47:55.669Z,11.20
2018-07-10T02:50:25.151Z,11.10
2018-07-10T02:52:55.159Z,11.00
2018-07-10T02:55:24.580Z,11.20
2018-07-10T02:57:53.656Z,11.30
2018-07-10T03:00:22.916Z,11.40
2018-07-10T03:05:21.655Z,11.50
2018-07-10T03:07:51.003Z,11.60
2018-07-10T03:10:19.976Z,11.60
2018-07-10T03:12:49.808Z,11.70
2018-07-10T03:15:18.964Z,11.70
2018-07-10T03:17:48.703Z,11.70
2018-07-10T03:20:17.918Z,11.80
2018-07-10T03:25:15.792Z,11.50
2018-07-10T03:27:44.990Z,11.80
2018-07-10T03:30:14.149Z,12.00
2018-07-10T03:32:43.412Z,12.20
2018-07-10T03:35:12.568Z,12.30
2018-07-10T03:37:42.380Z,12.30
2018-07-10T03:40:11.949Z,12.40
2018-07-10T03:42:41.463Z,12.30
2018-07-10T03:45:10.484Z,12.20
2018-07-10T03:47:39.849Z,12.30
2018-07-10T03:50:08.947Z,12.40
2018-07-10T03:52:38.640Z,12.70
2018-07-10T03:55:12.747Z,12.80
2018-07-10T03:57:41.893Z,13.00
2018-07-10T04:00:12.933Z,13.20
2018-07-10T04:02:43.432Z,13.30
2018-07-10T04:05:12.763Z,13.40
2018-07-10T04:07:42.448Z,13.50
2018-07-10T04:10:13.048Z,13.50
2018-07-10T04:12:42.699Z,13.60
2018-07-10T04:15:12.033Z,13.60
2018-07-10T04:17:49.191Z,13.70
2018-07-10T04:20:18.501Z,13.70
2018-07-10T04:22:55.467Z,13.60
2018-07-10T04:25:32.112Z,13.50
2018-07-10T04:28:06.551Z,13.70
2018-07-10T04:32:42.736Z,13.70
2018-07-10T04:35:17.967Z,13.80
2018-07-10T04:37:49.738Z,13.90
2018-07-10T04:40:19.886Z,14.00
2018-07-10T04:42:58.997Z,14.10
2018-07-10T04:45:35.212Z,14.20
2018-07-10T04:48:04.388Z,14.20
2018-07-10T04:51:08.490Z,14.40
2018-07-10T04:53:46.415Z,14.50
2018-07-10T04:56:15.800Z,14.50
2018-07-10T04:58:46.728Z,14.60
2018-07-10T05:01:16.031Z,14.70
2018-07-10T05:03:45.151Z,14.70
2018-07-10T05:06:14.435Z,14.80
2018-07-10T05:08:44.255Z,15.00
2018-07-10T05:11:13.580Z,15.10
2018-07-10T05:13:42.744Z,15.20
2018-07-10T05:16:11.884Z,15.20
2018-07-10T05:18:41.103Z,15.20
2018-07-10T05:21:15.128Z,15.30
2018-07-10T05:23:45.186Z,15.40
2018-07-10T05:26:15.171Z,15.50
2018-07-10T05:28:45.892Z,15.60
2018-07-10T05:31:15.319Z,15.70
2018-07-10T05:33:47.744Z,15.80
2018-07-10T05:36:17.916Z,15.90
2018-07-10T05:38:49.076Z,16.00
2018-07-10T05:41:22.440Z,16.00
2018-07-10T05:43:53.803Z,16.20
2018-07-10T05:46:25.476Z,16.40
2018-07-10T05:49:00.072Z,16.50
2018-07-10T05:51:32.225Z,16.60
2018-07-10T05:54:04.896Z,16.60
2018-07-10T05:59:04.792Z,16.70
2018-07-10T06:01:34.544Z,16.80
2018-07-10T06:04:03.800Z,16.90
2018-07-10T06:06:32.864Z,17.00
2018-07-10T06:09:02.146Z,17.20
2018-07-10T06:11:31.279Z,17.30
2018-07-10T06:14:00.585Z,17.40
2018-07-10T06:16:29.951Z,17.30
2018-07-10T06:18:59.286Z,17.50
2018-07-10T06:21:37.095Z,17.60
2018-07-10T06:24:10.752Z,18.00
2018-07-10T06:26:41.717Z,18.40
2018-07-10T06:29:12.838Z,18.60
2018-07-10T06:31:52.992Z,18.90
2018-07-10T06:34:34.348Z,19.30
2018-07-10T06:37:06.085Z,19.40
2018-07-10T06:39:36.009Z,19.70
2018-07-10T06:42:07.080Z,19.80
2018-07-10T06:44:37.577Z,20.10
2018-07-10T06:47:19.956Z,20.50
2018-07-10T06:49:50.082Z,20.60
2018-07-10T06:52:20.549Z,20.80
2018-07-10T06:55:07.163Z,20.90
2018-07-10T06:57:38.551Z,20.90
2018-07-10T07:00:10.194Z,21.20
2018-07-10T07:02:39.891Z,21.40
2018-07-10T07:05:09.376Z,21.50
2018-07-10T07:07:39.455Z,21.90
2018-07-10T07:10:10.264Z,21.90
2018-07-10T07:12:40.513Z,21.70
2018-07-10T07:15:12.899Z,21.60
2018-07-10T07:17:43.487Z,21.50
2018-07-10T07:20:13.094Z,21.50
2018-07-10T07:22:42.442Z,21.70
2018-07-10T07:25:11.654Z,21.60
2018-07-10T07:27:40.800Z,21.60
2018-07-10T07:30:09.547Z,21.60
2018-07-10T07:32:38.916Z,21.60
2018-07-10T07:35:08.392Z,21.60
2018-07-10T07:37:39.415Z,21.60
2018-07-10T07:40:09.259Z,21.70
2018-07-10T07:42:38.356Z,21.70
2018-07-10T07:45:07.822Z,21.50
2018-07-10T07:47:37.113Z,21.60
2018-07-10T07:50:06.223Z,21.50
2018-07-10T07:52:35.900Z,21.60
2018-07-10T07:55:05.125Z,21.50
2018-07-10T07:57:34.386Z,21.50
2018-07-10T08:00:03.856Z,21.40
2018-07-10T08:02:33.088Z,21.50
2018-07-10T08:05:02.281Z,21.60
2018-07-10T08:10:00.752Z,21.60
2018-07-10T08:12:30.870Z,21.70
2018-07-10T08:15:03.008Z,21.80
2018-07-10T08:17:35.713Z,21.90
2018-07-10T08:20:05.675Z,21.80
2018-07-10T08:22:35.725Z,21.80
2018-07-10T08:25:05.725Z,21.90
2018-07-10T08:27:36.831Z,21.90
2018-07-10T08:32:35.262Z,22.00
2018-07-10T08:35:04.519Z,22.20
2018-07-10T08:40:02.509Z,22.10
2018-07-10T08:45:01.008Z,22.20
2018-07-10T08:47:30.061Z,22.10
2018-07-10T08:49:59.836Z,22.20
2018-07-10T08:52:29.257Z,22.30
2018-07-10T08:54:58.481Z,22.30
2018-07-10T08:57:27.859Z,22.20
2018-07-10T08:59:56.905Z,22.30
2018-07-10T09:02:26.030Z,22.20
2018-07-10T09:04:55.184Z,22.20
2018-07-10T09:07:24.439Z,22.20
2018-07-10T09:09:53.540Z,22.20
2018-07-10T09:12:22.784Z,22.20
2018-07-10T09:14:52.082Z,22.10
2018-07-10T09:17:21.261Z,22.00
2018-07-10T09:19:50.541Z,21.90
2018-07-10T09:22:19.652Z,22.00
2018-07-10T09:24:51.922Z,21.90
2018-07-10T09:27:22.525Z,21.90
2018-07-10T09:29:51.833Z,22.10
2018-07-10T09:32:26.763Z,22.20
2018-07-10T09:34:57.419Z,22.30
2018-07-10T09:37:33.229Z,22.40
2018-07-10T09:40:07.611Z,22.50
2018-07-10T09:42:40.264Z,22.70
2018-07-10T09:45:09.456Z,22.90
2018-07-10T09:47:38.711Z,23.10
2018-07-10T09:50:07.665Z,23.30
2018-07-10T09:52:36.849Z,23.60
2018-07-10T09:55:06.171Z,23.20
2018-07-10T09:57:35.258Z,23.30
2018-07-10T10:00:04.718Z,23.80
2018-07-10T10:02:35.167Z,25.00
2018-07-10T10:05:06.020Z,25.70
2018-07-10T10:07:34.962Z,26.20
2018-07-10T10:10:05.187Z,25.90
2018-07-10T10:12:34.513Z,26.10
2018-07-10T10:15:03.644Z,25.70
2018-07-10T10:17:33.218Z,25.70
2018-07-10T10:20:02.298Z,26.20
2018-07-10T10:22:32.695Z,26.60
2018-07-10T10:25:03.634Z,26.60
2018-07-10T10:27:32.879Z,26.60
2018-07-10T10:32:31.423Z,26.20
2018-07-10T10:35:00.670Z,26.40
2018-07-10T10:37:30.075Z,25.90
2018-07-10T10:40:00.360Z,26.40
2018-07-10T10:42:29.777Z,26.30
2018-07-10T10:45:00.567Z,25.70
2018-07-10T10:47:30.878Z,26.20
2018-07-10T10:50:01.682Z,26.60
2018-07-10T10:52:31.053Z,26.20
2018-07-10T10:55:00.626Z,26.20
2018-07-10T10:57:34.171Z,26.50
2018-07-10T11:00:03.408Z,26.10
2018-07-10T11:02:32.730Z,26.10
2018-07-10T11:05:02.504Z,26.20
2018-07-10T11:07:32.587Z,26.40
2018-07-10T11:10:01.815Z,26.20
2018-07-10T11:12:31.762Z,26.10
2018-07-10T11:15:01.466Z,25.90
2018-07-10T11:19:41.783Z,25.60
2018-07-10T11:22:12.600Z,25.40
2018-07-10T11:24:48.483Z,25.10
2018-07-10T11:27:27.150Z,25.40
2018-07-10T11:29:56.953Z,25.30
2018-07-10T11:32:26.614Z,25.10
2018-07-10T11:34:55.893Z,25.10
2018-07-10T11:37:25.332Z,25.30
2018-07-10T11:39:54.526Z,25.20
2018-07-10T11:42:24.238Z,25.40
2018-07-10T11:44:53.561Z,25.60
2018-07-10T11:47:22.727Z,26.00
2018-07-10T11:49:52.028Z,26.00
2018-07-10T11:52:21.646Z,25.80
2018-07-10T11:54:51.199Z,26.40
2018-07-10T11:57:20.609Z,26.80
2018-07-10T11:59:49.938Z,26.70
2018-07-10T12:02:19.257Z,27.10
2018-07-10T12:04:48.750Z,26.90
2018-07-10T12:07:18.046Z,26.50
2018-07-10T12:12:21.725Z,25.90
2018-07-10T12:14:50.879Z,25.80
2018-07-10T12:17:20.081Z,25.70
2018-07-10T12:22:17.940Z,25.60
2018-07-10T12:24:50.210Z,25.60
2018-07-10T12:27:20.072Z,25.40
2018-07-10T12:29:50.573Z,25.40
2018-07-10T12:32:19.930Z,25.30
2018-07-10T12:34:51.888Z,25.00
2018-07-10T12:37:21.226Z,24.90
2018-07-10T12:39:50.414Z,24.80
2018-07-10T12:42:19.746Z,24.90
2018-07-10T12:44:49.552Z,24.70
2018-07-10T12:47:18.881Z,24.60
2018-07-10T12:49:48.290Z,24.40
2018-07-10T12:52:17.910Z,24.30
2018-07-10T12:54:47.180Z,24.10
2018-07-10T12:57:16.491Z,23.90
2018-07-10T12:59:45.744Z,23.70
2018-07-10T13:04:43.885Z,23.50
2018-07-10T13:07:13.317Z,22.80
2018-07-10T13:09:42.711Z,22.50
2018-07-10T13:12:12.300Z,21.70
2018-07-10T13:14:41.474Z,21.30
2018-07-10T13:17:10.667Z,20.90
2018-07-10T13:19:41.023Z,20.70
2018-07-10T13:22:10.149Z,20.50
2018-07-10T13:24:39.242Z,20.40
2018-07-10T13:27:08.344Z,20.50
2018-07-10T13:29:37.620Z,20.30
2018-07-10T13:32:06.692Z,20.10
2018-07-10T13:34:36.068Z,20.00
2018-07-10T13:37:05.633Z,20.00
2018-07-10T13:39:34.800Z,19.90
2018-07-10T13:42:04.132Z,19.90
2018-07-10T13:44:33.491Z,19.80
2018-07-10T13:47:03.125Z,19.60
2018-07-10T13:49:32.407Z,19.40
2018-07-10T13:52:03.304Z,19.20
2018-07-10T13:54:32.834Z,18.90
2018-07-10T13:57:08.263Z,18.80
2018-07-10T13:59:37.696Z,18.70
2018-07-10T14:02:07.456Z,18.60
2018-07-10T14:04:38.438Z,18.50
2018-07-10T14:07:10.495Z,18.50
2018-07-10T14:09:40.647Z,18.30
2018-07-10T14:14:39.487Z,18.20
2018-07-10T14:17:08.968Z,18.20
2018-07-10T14:19:38.413Z,18.00
2018-07-10T14:22:08.041Z,18.10
2018-07-10T14:24:37.210Z,18.10
2018-07-10T14:27:08.100Z,18.10
2018-07-10T14:29:38.635Z,18.20
2018-07-10T14:32:07.930Z,18.20
2018-07-10T14:34:39.549Z,18.10
2018-07-10T14:37:09.192Z,18.10
2018-07-10T14:39:38.433Z,18.10
2018-07-10T14:42:07.770Z,18.00
2018-07-10T14:44:37.461Z,17.80
2018-07-10T14:47:06.990Z,17.30
2018-07-10T14:49:36.679Z,17.20
2018-07-10T14:52:05.993Z,17.20
2018-07-10T14:54:35.406Z,17.10
2018-07-10T14:57:05.447Z,16.70
2018-07-10T14:59:35.084Z,16.70
2018-07-10T15:02:04.595Z,16.90
2018-07-10T15:04:34.348Z,16.70
2018-07-10T15:07:03.623Z,16.90
2018-07-10T15:09:33.547Z,16.90
2018-07-10T15:12:04.023Z,16.90
2018-07-10T15:14:33.956Z,16.80
2018-07-10T15:17:08.488Z,16.90
2018-07-10T15:19:38.562Z,16.90
2018-07-10T15:22:08.203Z,16.90
2018-07-10T15:24:37.585Z,16.90
2018-07-10T15:27:07.320Z,16.80
2018-07-10T15:29:36.751Z,16.70
2018-07-10T15:32:06.034Z,16.70
2018-07-10T15:34:35.591Z,16.80
2018-07-10T15:37:04.875Z,16.70
2018-07-10T15:39:34.104Z,16.80
2018-07-10T15:42:03.982Z,16.80
2018-07-10T15:44:33.239Z,16.80
2018-07-10T15:47:02.385Z,16.80
2018-07-10T15:49:32.103Z,16.70
2018-07-10T15:52:02.070Z,16.70
2018-07-10T15:54:31.217Z,16.60
2018-07-10T15:57:00.484Z,16.70
2018-07-10T15:59:29.800Z,16.60
2018-07-10T16:01:59.027Z,16.80
2018-07-10T16:04:28.562Z,16.80
2018-07-10T16:06:57.889Z,16.80
2018-07-10T16:09:26.996Z,16.90
2018-07-10T16:12:01.437Z,16.90
2018-07-10T16:14:30.716Z,17.00
2018-07-10T16:17:00.576Z,16.90
2018-07-10T16:19:43.117Z,16.90
2018-07-10T16:22:16.052Z,17.00
2018-07-10T16:24:48.051Z,16.90
2018-07-10T16:27:20.625Z,16.80
2018-07-10T16:29:50.418Z,16.80
2018-07-10T16:32:19.983Z,16.70
2018-07-10T16:34:49.136Z,16.70
2018-07-10T16:37:18.740Z,16.70
2018-07-10T16:39:48.061Z,16.70
2018-07-10T16:42:23.229Z,16.70
2018-07-10T16:44:52.781Z,16.70
2018-07-10T16:47:34.375Z,16.70
2018-07-10T16:50:06.538Z,16.70
2018-07-10T16:52:53.113Z,16.70
2018-07-10T16:55:22.661Z,16.80
2018-07-10T16:57:52.108Z,16.80
2018-07-10T17:00:23.078Z,16.70
2018-07-10T17:02:55.372Z,16.60
2018-07-10T17:05:25.868Z,16.60
2018-07-10T17:07:55.240Z,16.60
2018-07-10T17:10:24.571Z,16.60
2018-07-10T17:12:55.033Z,16.60
2018-07-10T17:15:24.276Z,16.50
2018-07-10T17:17:56.444Z,16.40
2018-07-10T17:20:26.192Z,16.40
2018-07-10T17:22:55.487Z,16.40
2018-07-10T17:25:26.072Z,16.40
2018-07-10T17:27:55.544Z,16.40
2018-07-10T17:30:24.594Z,16.30
2018-07-10T17:38:08.917Z,16.00
2018-07-10T17:40:38.719Z,16.00
2018-07-10T17:43:08.985Z,16.10
2018-07-10T17:45:38.135Z,16.10
2018-07-10T17:48:07.453Z,16.00
2018-07-10T17:50:36.846Z,16.00
2018-07-10T17:53:06.149Z,15.90
2018-07-10T17:55:36.090Z,15.90
2018-07-10T17:58:06.574Z,15.80
2018-07-10T18:00:36.308Z,16.00
2018-07-10T18:03:05.647Z,16.00
2018-07-10T18:05:35.306Z,15.90
2018-07-10T18:08:04.936Z,15.90
2018-07-10T18:13:03.901Z,16.00
2018-07-10T18:15:33.553Z,15.90
2018-07-10T18:18:03.232Z,15.90
2018-07-10T18:20:32.473Z,15.90
2018-07-10T18:23:01.830Z,15.90
2018-07-10T18:25:31.456Z,16.00
2018-07-10T18:28:01.016Z,16.00
2018-07-10T18:30:31.096Z,16.00
2018-07-10T18:33:00.474Z,16.00
2018-07-10T18:35:29.960Z,15.90
2018-07-10T18:37:59.223Z,16.00
2018-07-10T18:40:35.078Z,15.90
2018-07-10T18:43:04.461Z,15.90
2018-07-10T18:45:37.654Z,15.90
2018-07-10T18:48:08.597Z,16.00
2018-07-10T18:50:38.844Z,15.90
2018-07-10T18:53:09.964Z,15.90
2018-07-10T18:55:39.360Z,15.90
2018-07-10T18:58:27.928Z,15.80
2018-07-10T19:01:10.524Z,15.70
2018-07-10T19:03:40.190Z,15.70
2018-07-10T19:06:14.076Z,15.60
2018-07-10T19:08:46.717Z,15.60
2018-07-10T19:11:18.488Z,15.50
2018-07-10T19:13:48.092Z,15.50
2018-07-10T19:16:17.687Z,15.60
2018-07-10T19:18:48.585Z,15.60
2018-07-10T19:23:52.196Z,15.70
2018-07-10T19:26:24.537Z,15.70
2018-07-10T19:28:59.581Z,15.60
2018-07-10T19:31:32.656Z,15.60
2018-07-10T19:34:02.414Z,15.70
2018-07-10T19:36:32.329Z,15.70
2018-07-10T19:39:05.070Z,15.70
2018-07-10T19:41:34.722Z,15.70
2018-07-10T19:44:04.129Z,15.50
2018-07-10T19:46:35.334Z,15.60
2018-07-10T19:49:06.055Z,15.60
2018-07-10T19:51:35.360Z,15.60
2018-07-10T19:54:12.560Z,15.50
2018-07-10T19:56:42.141Z,15.50
2018-07-10T19:59:14.108Z,15.50
2018-07-10T20:01:49.447Z,15.40
2018-07-10T20:04:37.831Z,15.40
2018-07-10T20:07:15.267Z,15.50
2018-07-10T20:10:26.068Z,15.50
2018-07-10T20:13:58.994Z,15.50
2018-07-10T20:16:39.291Z,15.40
2018-07-10T20:19:18.109Z,15.40
2018-07-10T20:22:05.879Z,15.50
2018-07-10T20:24:35.417Z,15.50
2018-07-10T20:27:10.644Z,15.40
2018-07-10T20:29:51.991Z,15.50
2018-07-10T20:32:27.861Z,15.40
2018-07-10T20:35:02.306Z,15.30
2018-07-10T20:37:32.065Z,15.20
2018-07-10T20:40:01.791Z,15.20
2018-07-10T20:42:41.858Z,15.10
2018-07-10T20:45:10.985Z,15.00
2018-07-10T20:47:49.036Z,15.00
2018-07-10T20:50:21.356Z,14.90
2018-07-10T20:52:55.478Z,15.00
2018-07-10T20:55:30.813Z,15.00
2018-07-10T20:58:04.707Z,14.90
2018-07-10T21:00:40.459Z,14.80
2018-07-10T21:03:51.873Z,14.80
2018-07-10T21:07:01.440Z,14.90
2018-07-10T21:09:46.367Z,14.80
2018-07-10T21:12:18.695Z,14.80
2018-07-10T21:14:58.120Z,14.70
2018-07-10T21:19:39.651Z,14.80
2018-07-10T21:22:20.157Z,14.80
2018-07-10T21:25:01.299Z,14.70
2018-07-10T21:28:37.541Z,14.80
2018-07-10T21:31:44.953Z,14.70
2018-07-10T21:34:22.815Z,14.70
2018-07-10T21:37:04.407Z,14.70
2018-07-10T21:39:47.088Z,14.70
2018-07-10T21:42:28.921Z,14.70
2018-07-10T21:45:13.927Z,14.60
2018-07-10T21:47:56.863Z,14.50
2018-07-10T21:50:35.633Z,14.60
2018-07-10T21:53:04.928Z,14.60
2018-07-10T21:58:03.360Z,14.60
2018-07-10T22:00:43.627Z,14.60
2018-07-10T22:03:12.668Z,14.60
2018-07-10T22:05:42.048Z,14.60
2018-07-10T22:08:11.412Z,14.50
2018-07-10T22:10:40.599Z,14.40
2018-07-10T22:13:09.766Z,14.50
2018-07-10T22:15:38.987Z,14.40
2018-07-10T22:18:08.537Z,14.50
2018-07-10T22:20:37.721Z,14.50
2018-07-10T22:23:06.963Z,14.50
2018-07-10T22:25:36.164Z,14.30
2018-07-10T22:28:05.414Z,14.30
2018-07-10T22:30:39.632Z,14.30
2018-07-10T22:33:08.875Z,14.20
2018-07-10T22:35:38.064Z,14.20
2018-07-10T22:38:07.371Z,14.20
2018-07-10T22:40:36.299Z,14.20
2018-07-10T22:43:05.593Z,14.20
2018-07-10T22:45:35.063Z,14.20
2018-07-10T22:48:04.251Z,14.20
2018-07-10T22:50:33.570Z,14.10
2018-07-10T22:53:02.574Z,14.00
2018-07-10T22:55:33.056Z,14.00
2018-07-10T22:58:04.756Z,14.00
2018-07-10T23:00:39.287Z,14.10
2018-07-10T23:03:19.185Z,14.20
2018-07-10T23:05:49.189Z,14.20
2018-07-10T23:08:20.895Z,14.20
2018-07-10T23:10:50.306Z,14.20
2018-07-10T23:13:19.921Z,14.20
2018-07-10T23:15:49.618Z,14.10
2018-07-10T23:18:19.449Z,14.20
2018-07-10T23:20:49.088Z,14.20
2018-07-10T23:23:20.187Z,14.10
2018-07-10T23:25:49.728Z,14.00
2018-07-10T23:28:19.209Z,14.00
2018-07-10T23:30:48.410Z,13.90
2018-07-10T23:33:19.180Z,13.90
2018-07-10T23:35:54.020Z,14.00
2018-07-10T23:38:58.304Z,14.00
2018-07-10T23:42:01.928Z,14.00
2018-07-10T23:44:33.332Z,13.90
2018-07-10T23:47:09.803Z,13.90
2018-07-10T23:49:39.081Z,13.90
2018-07-10T23:52:24.915Z,13.90
2018-07-10T23:54:54.236Z,13.80
2018-07-10T23:57:23.587Z,13.70
2018-07-10T23:59:52.875Z,13.70
